createdAt,value
2023-01-20T00:01:48.820Z,86.42
2023-01-20T00:06:50.909Z,85.78
2023-01-20T00:11:53.007Z,86.04
2023-01-20T00:16:57.409Z,86.08
2023-01-20T00:21:59.533Z,85.77
2023-01-20T00:27:01.614Z,86.41
2023-01-20T00:32:03.917Z,86.88
2023-01-20T00:37:06.045Z,86.59
2023-01-20T00:42:08.178Z,86.19
2023-01-20T00:47:10.256Z,85.85
2023-01-20T00:52:12.511Z,85.66
2023-01-20T00:57:14.608Z,85.08
2023-01-20T01:02:16.707Z,85.10
2023-01-20T01:07:18.945Z,84.72
2023-01-20T01:12:24.384Z,84.62
2023-01-20T01:17:26.479Z,85.05
2023-01-20T01:22:28.672Z,85.40
2023-01-20T01:27:30.860Z,85.33
2023-01-20T01:32:33.165Z,85.41
2023-01-20T01:37:35.291Z,85.34
2023-01-20T01:42:37.584Z,85.34
2023-01-20T01:47:54.954Z,85.56
2023-01-20T01:52:57.238Z,85.89
2023-01-20T01:58:00.928Z,86.25
2023-01-20T02:03:03.859Z,86.31
2023-01-20T02:08:07.937Z,86.85
2023-01-20T02:13:11.236Z,86.95
2023-01-20T02:18:31.167Z,87.39
2023-01-20T02:24:06.764Z,88.39
2023-01-20T02:29:45.167Z,88.19
2023-01-20T02:34:59.174Z,87.15
2023-01-20T02:40:39.540Z,86.13
2023-01-20T02:45:50.333Z,85.70
2023-01-20T02:51:13.826Z,85.68
2023-01-20T02:56:17.924Z,85.64
2023-01-20T03:01:25.185Z,85.34
2023-01-20T03:06:33.959Z,84.93
2023-01-20T03:11:41.408Z,84.95
2023-01-20T03:16:44.123Z,84.68
2023-01-20T03:21:46.515Z,83.85
2023-01-20T03:26:48.642Z,84.10
2023-01-20T03:31:54.951Z,84.67
2023-01-20T03:36:58.498Z,84.52
2023-01-20T03:42:07.991Z,84.66
2023-01-20T03:47:47.654Z,84.51
2023-01-20T03:53:18.636Z,84.15
2023-01-20T03:58:29.477Z,83.97
2023-01-20T04:03:35.673Z,83.84
2023-01-20T04:08:59.701Z,83.88
2023-01-20T04:14:02.460Z,84.01
2023-01-20T04:19:04.627Z,83.83
2023-01-20T04:24:28.272Z,83.74
2023-01-20T04:29:30.477Z,84.32
2023-01-20T04:34:32.707Z,84.42
2023-01-20T04:39:34.812Z,84.75
2023-01-20T04:44:39.155Z,84.74
2023-01-20T04:49:41.286Z,84.65
2023-01-20T04:54:43.427Z,84.78
2023-01-20T04:59:45.641Z,84.19
2023-01-20T05:04:47.909Z,84.13
2023-01-20T05:09:50.083Z,83.96
2023-01-20T05:14:52.151Z,83.81
2023-01-20T05:19:54.255Z,84.07
2023-01-20T05:24:56.385Z,84.20
2023-01-20T05:29:58.542Z,84.40
2023-01-20T05:35:00.648Z,84.51
2023-01-20T05:40:03.024Z,84.34
2023-01-20T05:45:05.847Z,84.42
2023-01-20T05:50:08.962Z,83.99
2023-01-20T05:55:11.684Z,83.67
2023-01-20T06:00:15.031Z,83.00
2023-01-20T06:05:17.722Z,83.14
2023-01-20T06:10:19.930Z,83.29
2023-01-20T06:15:26.400Z,83.51
2023-01-20T06:20:28.601Z,84.36
2023-01-20T06:25:31.956Z,85.05
2023-01-20T06:30:34.052Z,85.15
2023-01-20T06:35:36.679Z,85.21
2023-01-20T06:40:38.804Z,85.47
2023-01-20T06:45:40.917Z,85.38
2023-01-20T06:50:43.010Z,85.29
2023-01-20T06:56:03.603Z,85.10
2023-01-20T07:01:09.072Z,85.20
2023-01-20T07:06:23.027Z,84.90
2023-01-20T07:11:27.628Z,84.49
2023-01-20T07:16:30.560Z,84.31
2023-01-20T07:21:32.804Z,84.66
2023-01-20T07:26:35.068Z,84.81
2023-01-20T07:31:37.456Z,84.79
2023-01-20T07:36:39.646Z,84.42
2023-01-20T07:41:43.811Z,84.14
2023-01-20T07:46:45.992Z,83.75
2023-01-20T07:51:48.135Z,82.84
2023-01-20T07:56:50.905Z,82.94
2023-01-20T08:01:53.255Z,82.23
2023-01-20T08:06:55.405Z,82.53
2023-01-20T08:11:57.706Z,82.72
2023-01-20T08:17:00.305Z,82.29
2023-01-20T08:22:02.486Z,82.29
2023-01-20T08:27:04.637Z,82.26
2023-01-20T08:32:06.910Z,82.04
2023-01-20T08:37:09.004Z,82.12
2023-01-20T08:42:11.163Z,82.60
2023-01-20T08:47:13.263Z,82.36
2023-01-20T08:52:15.637Z,81.77
2023-01-20T08:57:17.811Z,81.22
2023-01-20T09:02:20.164Z,81.11
2023-01-20T09:07:22.276Z,80.77
2023-01-20T09:12:24.489Z,80.66
2023-01-20T09:17:26.590Z,80.71
2023-01-20T09:22:28.765Z,80.65
2023-01-20T09:27:31.235Z,80.68
2023-01-20T09:32:33.900Z,80.35
2023-01-20T09:37:54.587Z,80.03
2023-01-20T09:43:30.873Z,80.12
2023-01-20T09:49:10.282Z,80.10
2023-01-20T09:54:20.592Z,80.00
2023-01-20T09:59:37.960Z,80.10
2023-01-20T10:04:51.721Z,79.74
2023-01-20T10:10:02.807Z,79.87
2023-01-20T10:15:13.247Z,79.74
2023-01-20T10:20:42.749Z,79.50
2023-01-20T10:25:53.374Z,78.72
2023-01-20T10:31:01.814Z,78.30
2023-01-20T10:36:09.107Z,77.84
2023-01-20T10:41:21.514Z,77.20
2023-01-20T10:46:36.954Z,76.08
2023-01-20T10:51:54.263Z,75.74
2023-01-20T10:56:59.967Z,75.25
2023-01-20T11:02:26.072Z,75.24
2023-01-20T11:07:31.242Z,75.92
2023-01-20T11:12:40.150Z,75.41
2023-01-20T11:17:42.306Z,75.42
2023-01-20T11:22:47.887Z,75.48
2023-01-20T11:27:51.277Z,75.91
2023-01-20T11:33:38.661Z,76.24
2023-01-20T11:38:44.673Z,77.76
2023-01-20T11:43:47.799Z,78.34
2023-01-20T11:48:50.577Z,78.62
2023-01-20T11:54:13.852Z,78.94
2023-01-20T11:59:32.122Z,79.17
2023-01-20T12:05:03.581Z,79.10
2023-01-20T12:10:24.278Z,79.01
2023-01-20T12:15:31.521Z,78.52
2023-01-20T12:20:56.890Z,78.81
2023-01-20T12:26:04.611Z,79.19
2023-01-20T12:31:10.512Z,78.11
2023-01-20T12:36:34.884Z,79.62
2023-01-20T12:41:56.425Z,79.84
2023-01-20T12:47:51.310Z,80.27
2023-01-20T12:53:03.866Z,80.73
2023-01-20T12:58:36.777Z,81.03
2023-01-20T13:03:50.768Z,81.19
2023-01-20T13:09:17.193Z,81.54
2023-01-20T13:14:48.256Z,82.99
2023-01-20T13:19:56.576Z,83.76
2023-01-20T13:25:04.755Z,85.48
2023-01-20T13:30:10.721Z,86.29
2023-01-20T13:35:16.179Z,87.21
2023-01-20T13:40:49.588Z,88.22
2023-01-20T13:46:18.116Z,89.48
2023-01-20T13:51:29.796Z,89.90
2023-01-20T13:56:33.004Z,90.21
2023-01-20T14:01:37.284Z,90.60
2023-01-20T14:06:49.245Z,91.50
2023-01-20T14:11:53.506Z,91.65
2023-01-20T14:16:56.373Z,91.71
2023-01-20T14:22:04.097Z,91.56
2023-01-20T14:27:34.153Z,91.71
2023-01-20T14:32:39.988Z,92.33
2023-01-20T14:37:42.522Z,92.34
2023-01-20T14:42:56.813Z,93.07
2023-01-20T14:48:01.397Z,93.42
2023-01-20T14:53:04.327Z,93.41
2023-01-20T14:58:15.327Z,93.88
2023-01-20T15:03:28.457Z,93.86
2023-01-20T15:08:33.910Z,93.81
2023-01-20T15:13:38.013Z,94.38
2023-01-20T15:18:40.435Z,94.71
2023-01-20T15:23:45.630Z,94.66
2023-01-20T15:28:48.360Z,94.88
2023-01-20T15:33:50.753Z,94.87
2023-01-20T15:38:55.575Z,95.14
2023-01-20T15:43:57.687Z,94.95
2023-01-20T15:49:00.045Z,95.37
2023-01-20T15:54:02.167Z,95.59
2023-01-20T15:59:12.511Z,95.75
2023-01-20T16:04:15.513Z,95.97
2023-01-20T16:09:24.883Z,96.20
2023-01-20T16:14:26.995Z,96.16
2023-01-20T16:19:29.040Z,96.21
2023-01-20T16:24:31.159Z,96.22
2023-01-20T16:29:33.620Z,96.61
2023-01-20T16:34:35.781Z,96.07
2023-01-20T16:39:37.870Z,96.06
2023-01-20T16:44:40.126Z,96.39
2023-01-20T16:49:43.105Z,96.53
2023-01-20T16:54:45.248Z,96.29
2023-01-20T16:59:47.339Z,96.36
2023-01-20T17:04:49.809Z,96.53
2023-01-20T17:09:52.142Z,96.71
2023-01-20T17:14:54.297Z,96.71
2023-01-20T17:19:56.386Z,96.60
2023-01-20T17:24:58.449Z,96.49
2023-01-20T17:30:01.186Z,96.69
2023-01-20T17:35:04.045Z,96.74
2023-01-20T17:40:06.752Z,96.79
2023-01-20T17:45:09.341Z,96.99
2023-01-20T17:50:11.608Z,97.08
2023-01-20T17:55:14.349Z,96.56
2023-01-20T18:00:17.337Z,96.70
2023-01-20T18:05:19.724Z,96.70
2023-01-20T18:10:21.825Z,96.74
2023-01-20T18:15:23.964Z,96.50
2023-01-20T18:20:26.134Z,96.23
2023-01-20T18:25:28.264Z,95.85
2023-01-20T18:30:30.530Z,95.85
2023-01-20T18:35:32.705Z,95.52
2023-01-20T18:40:34.848Z,94.96
2023-01-20T18:45:36.953Z,94.80
2023-01-20T18:50:40.301Z,94.54
2023-01-20T18:55:42.475Z,94.18
2023-01-20T19:00:44.573Z,94.05
2023-01-20T19:05:48.299Z,93.61
2023-01-20T19:10:51.079Z,93.68
2023-01-20T19:15:53.629Z,93.84
2023-01-20T19:20:55.913Z,93.90
2023-01-20T19:26:12.701Z,92.89
2023-01-20T19:31:17.635Z,92.71
2023-01-20T19:36:20.306Z,93.06
2023-01-20T19:41:28.275Z,92.30
2023-01-20T19:46:33.162Z,92.54
2023-01-20T19:51:36.516Z,92.74
2023-01-20T19:56:38.842Z,92.28
2023-01-20T20:01:41.103Z,92.45
2023-01-20T20:06:47.831Z,92.36
2023-01-20T20:11:50.777Z,92.27
2023-01-20T20:16:52.917Z,92.81
2023-01-20T20:21:56.359Z,92.98
2023-01-20T20:26:58.587Z,92.83
2023-01-20T20:32:00.925Z,93.23
2023-01-20T20:37:03.564Z,92.56
2023-01-20T20:42:05.838Z,92.88
2023-01-20T20:47:08.113Z,92.68
2023-01-20T20:52:10.296Z,92.72
2023-01-20T20:57:12.419Z,92.16
2023-01-20T21:02:15.050Z,92.08
2023-01-20T21:07:17.376Z,92.37
2023-01-20T21:12:19.491Z,92.18
2023-01-20T21:17:21.856Z,92.11
2023-01-20T21:22:24.084Z,91.41
2023-01-20T21:27:26.427Z,91.46
2023-01-20T21:32:28.773Z,91.52
2023-01-20T21:37:30.861Z,91.69
2023-01-20T21:42:33.273Z,92.03
2023-01-20T21:47:35.480Z,91.41
2023-01-20T21:52:45.293Z,91.54
2023-01-20T21:57:50.285Z,91.54
2023-01-20T22:02:53.373Z,91.54
2023-01-20T22:07:55.446Z,92.02
2023-01-20T22:12:57.558Z,91.89
2023-01-20T22:17:59.798Z,91.50
2023-01-20T22:23:03.069Z,91.48
2023-01-20T22:28:05.304Z,91.62
2023-01-20T22:33:07.536Z,90.87
2023-01-20T22:38:09.750Z,90.79
2023-01-20T22:43:11.864Z,90.91
2023-01-20T22:48:13.992Z,90.92
2023-01-20T22:53:16.070Z,90.88
2023-01-20T22:58:18.182Z,90.92
2023-01-20T23:03:20.321Z,90.72
2023-01-20T23:08:24.051Z,90.55
2023-01-20T23:13:27.019Z,90.62
2023-01-20T23:18:29.922Z,90.44
2023-01-20T23:23:32.855Z,90.04
2023-01-20T23:28:35.050Z,90.09
2023-01-20T23:33:37.132Z,90.21
2023-01-20T23:38:40.069Z,89.77
2023-01-20T23:43:42.624Z,89.83
2023-01-20T23:48:46.662Z,89.64
2023-01-20T23:53:49.026Z,89.44
2023-01-20T23:58:52.186Z,89.21
